Time;durP1;ratioP1;P1;durP2;ratioP2;P2;SDS_P1;SDS_P2;PMS_P1;PMS_P2;Temp;Humidity;BMP_temperature;BMP_pressure;BME280_temperature;BME280_humidity;BME280_pressure;Samples;Min_cycle;Max_cycle;Signal;HPM_P1;HPM_P2
2021/12/14 00:00:23;;;;;;;6.97;5.00;;;;;;;;;;5082091;28;20206;-72
2021/12/14 00:02:51;;;;;;;7.47;4.70;;;;;;;;;;5085003;28;20556;-71
2021/12/14 00:05:21;;;;;;;9.17;5.23;;;;;;;;;;5080894;28;20207;-72
2021/12/14 00:07:48;;;;;;;13.27;6.43;;;;;;;;;;5083555;28;20198;-72
2021/12/14 00:10:32;;;;;;;8.70;5.57;;;;;;;;;;5080077;28;20213;-72
2021/12/14 00:13:04;;;;;;;9.23;5.40;;;;;;;;;;5085803;28;20235;-71
2021/12/14 00:15:31;;;;;;;11.07;4.97;;;;;;;;;;5091424;28;20206;-72
2021/12/14 00:17:59;;;;;;;8.13;5.27;;;;;;;;;;5092778;28;20230;-71
2021/12/14 00:20:30;;;;;;;13.33;5.93;;;;;;;;;;5091408;28;20602;-71
2021/12/14 00:25:44;;;;;;;10.20;6.07;;;;;;;;;;5087635;28;20255;-72
2021/12/14 00:28:12;;;;;;;9.97;5.00;;;;;;;;;;5091601;28;20649;-72
2021/12/14 00:30:40;;;;;;;9.30;5.57;;;;;;;;;;5088627;28;20247;-71
2021/12/14 00:33:08;;;;;;;6.50;4.50;;;;;;;;;;5090512;28;20222;-71
2021/12/14 00:35:36;;;;;;;6.67;4.77;;;;;;;;;;5092185;28;20868;-72
2021/12/14 00:38:04;;;;;;;5.17;4.30;;;;;;;;;;5091509;28;20226;-71
2021/12/14 00:40:33;;;;;;;5.10;4.43;;;;;;;;;;5083794;28;20213;-71
2021/12/14 00:43:01;;;;;;;7.43;4.20;;;;;;;;;;5091789;28;20203;-71
2021/12/14 00:45:29;;;;;;;10.27;6.03;;;;;;;;;;5091913;28;20214;-71
2021/12/14 00:47:56;;;;;;;6.73;4.70;;;;;;;;;;5091249;28;20203;-71
2021/12/14 00:50:25;;;;;;;5.80;4.63;;;;;;;;;;5091199;28;20206;-71
2021/12/14 00:52:53;;;;;;;7.73;4.73;;;;;;;;;;5090847;28;20728;-71
2021/12/14 00:55:25;;;;;;;6.80;5.00;;;;;;;;;;5091323;28;20206;-71
2021/12/14 00:57:53;;;;;;;4.77;4.23;;;;;;;;;;5090113;28;20231;-71
2021/12/14 01:00:22;;;;;;;5.03;3.87;;;;;;;;;;5089844;28;20240;-71
2021/12/14 01:02:49;;;;;;;6.23;4.40;;;;;;;;;;5090362;28;20202;-71
2021/12/14 01:05:19;;;;;;;8.77;5.27;;;;;;;;;;5091205;28;20218;-71
2021/12/14 01:07:46;;;;;;;5.70;4.73;;;;;;;;;;5091116;28;20210;-70
2021/12/14 01:10:19;;;;;;;8.40;4.90;;;;;;;;;;5091304;28;20680;-71
2021/12/14 01:12:50;;;;;;;8.33;4.90;;;;;;;;;;5090316;28;20206;-71
2021/12/14 01:15:27;;;;;;;8.47;4.43;;;;;;;;;;5091267;28;20206;-71
2021/12/14 01:18:03;;;;;;;6.17;5.33;;;;;;;;;;5090965;28;20226;-71
2021/12/14 01:20:37;;;;;;;5.10;3.93;;;;;;;;;;5090446;28;20202;-71
2021/12/14 01:23:14;;;;;;;6.37;4.40;;;;;;;;;;5091019;28;20210;-71
2021/12/14 01:25:44;;;;;;;6.50;4.10;;;;;;;;;;5090492;28;20204;-71
2021/12/14 01:28:13;;;;;;;5.03;4.13;;;;;;;;;;5090924;28;20241;-71
2021/12/14 01:30:51;;;;;;;5.97;4.60;;;;;;;;;;5089945;28;20234;-71
2021/12/14 01:33:19;;;;;;;6.83;4.80;;;;;;;;;;5083741;28;20989;-70
2021/12/14 01:35:49;;;;;;;5.93;4.63;;;;;;;;;;5090408;28;20210;-71
2021/12/14 01:38:21;;;;;;;6.57;4.50;;;;;;;;;;5090291;28;20599;-71
2021/12/14 01:40:54;;;;;;;7.73;4.33;;;;;;;;;;5090873;28;20202;-71
2021/12/14 01:43:22;;;;;;;7.67;5.07;;;;;;;;;;5089569;28;20210;-71
2021/12/14 01:45:49;;;;;;;14.90;4.30;;;;;;;;;;5090477;28;20837;-71
2021/12/14 01:48:16;;;;;;;6.00;4.00;;;;;;;;;;5090854;28;20207;-71
2021/12/14 01:50:45;;;;;;;6.97;4.33;;;;;;;;;;5090955;28;20210;-71
2021/12/14 01:53:14;;;;;;;6.63;4.40;;;;;;;;;;5090712;28;20207;-71
2021/12/14 01:55:43;;;;;;;5.83;4.03;;;;;;;;;;5090580;28;20256;-71
2021/12/14 01:58:12;;;;;;;4.70;3.93;;;;;;;;;;5090344;28;20703;-72
2021/12/14 02:00:42;;;;;;;7.23;4.33;;;;;;;;;;5090581;28;20194;-71
2021/12/14 02:03:10;;;;;;;6.17;4.00;;;;;;;;;;5090551;28;20206;-71
2021/12/14 02:05:40;;;;;;;5.50;4.10;;;;;;;;;;5089975;28;20202;-71
2021/12/14 02:08:18;;;;;;;8.73;4.67;;;;;;;;;;5090708;28;20198;-71
2021/12/14 02:10:45;;;;;;;6.43;4.23;;;;;;;;;;5090296;28;20210;-71
2021/12/14 02:13:14;;;;;;;4.90;4.10;;;;;;;;;;5090428;28;20698;-71
2021/12/14 02:15:42;;;;;;;6.03;4.57;;;;;;;;;;5089866;28;20631;-71
2021/12/14 02:18:11;;;;;;;4.17;3.73;;;;;;;;;;5090309;28;20226;-70
2021/12/14 02:20:40;;;;;;;5.17;4.23;;;;;;;;;;5089932;28;20606;-71
2021/12/14 02:23:09;;;;;;;6.73;4.70;;;;;;;;;;5090226;28;20653;-70
2021/12/14 02:25:37;;;;;;;6.73;3.90;;;;;;;;;;5090066;28;20279;-71
2021/12/14 02:28:06;;;;;;;4.37;3.87;;;;;;;;;;5089531;28;20202;-71
2021/12/14 02:30:33;;;;;;;4.60;3.73;;;;;;;;;;5089846;28;20264;-71
2021/12/14 02:33:01;;;;;;;6.70;4.00;;;;;;;;;;5090372;28;20226;-71
2021/12/14 02:35:29;;;;;;;4.67;4.07;;;;;;;;;;5089534;28;20217;-71
2021/12/14 02:37:57;;;;;;;9.20;4.13;;;;;;;;;;5089663;28;20225;-71
2021/12/14 02:40:53;;;;;;;7.10;4.23;;;;;;;;;;5089859;28;20210;-71
2021/12/14 02:43:19;;;;;;;5.53;3.53;;;;;;;;;;5089711;28;20210;-71
2021/12/14 02:45:46;;;;;;;5.50;3.63;;;;;;;;;;5089334;28;20214;-71
2021/12/14 02:48:13;;;;;;;5.83;3.70;;;;;;;;;;5084555;28;20687;-71
2021/12/14 02:50:41;;;;;;;6.07;4.00;;;;;;;;;;5089992;28;20923;-71
2021/12/14 02:53:08;;;;;;;4.57;4.13;;;;;;;;;;5089115;28;20424;-71
2021/12/14 02:55:36;;;;;;;6.77;3.60;;;;;;;;;;5089461;28;20206;-71
2021/12/14 02:58:05;;;;;;;5.63;3.73;;;;;;;;;;5089188;28;20248;-71
2021/12/14 03:00:37;;;;;;;9.30;3.93;;;;;;;;;;5088638;28;20225;-71
2021/12/14 03:03:09;;;;;;;6.47;4.23;;;;;;;;;;5089383;28;20210;-71
2021/12/14 03:05:37;;;;;;;4.40;4.00;;;;;;;;;;5089684;28;20268;-71
2021/12/14 03:08:07;;;;;;;4.70;4.20;;;;;;;;;;5089794;28;20206;-70
2021/12/14 03:10:51;;;;;;;4.83;4.20;;;;;;;;;;5089049;28;20579;-71
2021/12/14 03:13:20;;;;;;;5.93;4.17;;;;;;;;;;5089592;28;20310;-71
2021/12/14 03:15:51;;;;;;;8.83;4.07;;;;;;;;;;5088548;28;20210;-71
2021/12/14 03:18:21;;;;;;;5.50;4.20;;;;;;;;;;5089812;28;20716;-72
2021/12/14 03:21:04;;;;;;;3.80;3.50;;;;;;;;;;5089441;28;20256;-71
2021/12/14 03:23:32;;;;;;;6.30;4.00;;;;;;;;;;5070813;28;20268;-71
2021/12/14 03:26:01;;;;;;;6.03;4.47;;;;;;;;;;5092924;28;20202;-70
2021/12/14 03:28:30;;;;;;;4.73;3.73;;;;;;;;;;5093673;28;20233;-70
2021/12/14 03:31:02;;;;;;;5.23;3.87;;;;;;;;;;5093244;28;20234;-70
2021/12/14 03:33:31;;;;;;;4.57;3.73;;;;;;;;;;5093687;28;20591;-70
2021/12/14 03:35:59;;;;;;;7.13;4.17;;;;;;;;;;5092281;28;20206;-70
2021/12/14 03:38:28;;;;;;;5.60;3.93;;;;;;;;;;5093263;28;20222;-70
2021/12/14 03:40:57;;;;;;;6.63;3.83;;;;;;;;;;5093413;28;20206;-70
2021/12/14 03:43:25;;;;;;;4.17;3.70;;;;;;;;;;5093044;28;20209;-70
2021/12/14 03:45:54;;;;;;;7.37;4.10;;;;;;;;;;5093532;28;20214;-70
2021/12/14 03:48:22;;;;;;;4.47;4.07;;;;;;;;;;5093174;28;20743;-70
2021/12/14 03:50:49;;;;;;;5.33;4.07;;;;;;;;;;5092169;28;20293;-70
2021/12/14 03:53:19;;;;;;;6.10;4.30;;;;;;;;;;5093244;28;20221;-70
2021/12/14 03:55:48;;;;;;;8.50;4.33;;;;;;;;;;5093088;28;20210;-71
2021/12/14 03:58:16;;;;;;;4.00;3.67;;;;;;;;;;5093065;28;20704;-70
2021/12/14 04:00:44;;;;;;;6.07;4.57;;;;;;;;;;5092787;28;20210;-71
2021/12/14 04:03:15;;;;;;;4.60;3.83;;;;;;;;;;5093087;28;20199;-71
2021/12/14 04:05:43;;;;;;;6.63;5.00;;;;;;;;;;5093180;28;20230;-71
2021/12/14 04:08:10;;;;;;;6.67;4.93;;;;;;;;;;5092718;28;20205;-71
2021/12/14 04:10:38;;;;;;;6.67;4.43;;;;;;;;;;5093223;28;20210;-71
2021/12/14 04:13:05;;;;;;;3.93;3.50;;;;;;;;;;5092226;28;20206;-71
2021/12/14 04:15:33;;;;;;;11.23;4.77;;;;;;;;;;5092180;28;20215;-71
2021/12/14 04:18:00;;;;;;;5.90;4.57;;;;;;;;;;5092468;28;20226;-71
2021/12/14 04:20:29;;;;;;;7.17;5.43;;;;;;;;;;5093025;28;20648;-71
2021/12/14 04:22:57;;;;;;;9.40;4.90;;;;;;;;;;5092684;28;20255;-71
2021/12/14 04:25:27;;;;;;;5.73;4.70;;;;;;;;;;5092680;28;20206;-71
2021/12/14 04:27:54;;;;;;;8.33;5.47;;;;;;;;;;5092091;28;20221;-71
2021/12/14 04:30:23;;;;;;;8.87;5.90;;;;;;;;;;5091941;28;20222;-71
2021/12/14 04:32:51;;;;;;;7.67;5.50;;;;;;;;;;5092308;28;20222;-71
2021/12/14 04:35:19;;;;;;;8.53;6.03;;;;;;;;;;5092275;28;20214;-71
2021/12/14 04:37:50;;;;;;;8.93;5.80;;;;;;;;;;5091830;28;20226;-71
2021/12/14 04:40:36;;;;;;;13.60;6.27;;;;;;;;;;5092391;28;20206;-71
2021/12/14 04:54:07;;;;;;;9.00;6.40;;;;;;;;;;5074308;28;20264;-70
2021/12/14 04:56:37;;;;;;;9.10;5.80;;;;;;;;;;5091146;28;20217;-70
2021/12/14 04:59:05;;;;;;;12.23;6.63;;;;;;;;;;5090488;28;20250;-71
2021/12/14 05:01:33;;;;;;;13.10;6.87;;;;;;;;;;5090717;28;20207;-71
2021/12/14 05:04:03;;;;;;;10.67;6.70;;;;;;;;;;5091122;28;20206;-71
2021/12/14 05:06:45;;;;;;;12.30;6.30;;;;;;;;;;5091241;28;20216;-71
2021/12/14 05:09:22;;;;;;;10.30;6.23;;;;;;;;;;5088405;28;20656;-71
2021/12/14 05:11:50;;;;;;;10.17;5.97;;;;;;;;;;5090898;28;20206;-71
2021/12/14 05:14:18;;;;;;;13.33;7.00;;;;;;;;;;5090897;28;20213;-71
2021/12/14 05:16:45;;;;;;;10.20;6.63;;;;;;;;;;5090496;28;20203;-71
2021/12/14 05:19:13;;;;;;;14.53;6.97;;;;;;;;;;5090592;28;20221;-70
2021/12/14 05:21:41;;;;;;;9.43;6.40;;;;;;;;;;5090357;28;20210;-70
2021/12/14 05:24:10;;;;;;;14.83;7.20;;;;;;;;;;5091139;28;20211;-71
2021/12/14 05:26:39;;;;;;;13.37;6.60;;;;;;;;;;5090161;28;20852;-71
2021/12/14 05:29:07;;;;;;;9.67;6.67;;;;;;;;;;5082830;28;20209;-71
2021/12/14 05:31:34;;;;;;;11.10;5.90;;;;;;;;;;5090466;28;20293;-71
2021/12/14 05:34:01;;;;;;;12.10;6.00;;;;;;;;;;5090457;28;20264;-71
2021/12/14 05:36:29;;;;;;;10.23;6.27;;;;;;;;;;5090813;28;20292;-71
2021/12/14 05:38:58;;;;;;;11.97;6.57;;;;;;;;;;5087740;28;20249;-71
2021/12/14 05:44:14;;;;;;;11.87;6.77;;;;;;;;;;5090096;28;20302;-71
2021/12/14 05:46:49;;;;;;;12.37;7.10;;;;;;;;;;5089868;28;20209;-71
2021/12/14 05:49:17;;;;;;;13.00;6.27;;;;;;;;;;5087701;28;20664;-71
2021/12/14 05:51:44;;;;;;;14.37;6.83;;;;;;;;;;5090037;28;20213;-71
2021/12/14 05:54:11;;;;;;;13.03;6.40;;;;;;;;;;5090371;28;20217;-71
2021/12/14 05:56:38;;;;;;;13.43;6.70;;;;;;;;;;5089848;28;20267;-70
2021/12/14 05:59:05;;;;;;;10.00;6.37;;;;;;;;;;5089590;28;20226;-71
2021/12/14 06:01:34;;;;;;;13.50;7.10;;;;;;;;;;5089043;28;20683;-71
2021/12/14 06:04:03;;;;;;;10.43;6.63;;;;;;;;;;5089706;28;20730;-71
2021/12/14 06:06:32;;;;;;;13.43;6.73;;;;;;;;;;5089621;28;20198;-71
2021/12/14 06:09:05;;;;;;;11.70;6.30;;;;;;;;;;5089916;28;20206;-71
2021/12/14 06:11:32;;;;;;;11.23;6.33;;;;;;;;;;5089399;28;20210;-71
2021/12/14 06:13:59;;;;;;;12.53;6.13;;;;;;;;;;5088845;28;20199;-72
2021/12/14 06:16:28;;;;;;;11.83;6.33;;;;;;;;;;5089475;28;20570;-72
2021/12/14 06:19:12;;;;;;;11.07;6.40;;;;;;;;;;5089868;28;20242;-73
2021/12/14 06:21:39;;;;;;;12.73;6.97;;;;;;;;;;5078775;28;20275;-71
2021/12/14 06:24:08;;;;;;;16.97;7.33;;;;;;;;;;5089698;28;20213;-73
2021/12/14 06:26:35;;;;;;;11.40;6.30;;;;;;;;;;5088894;28;20214;-70
2021/12/14 06:29:07;;;;;;;14.40;7.57;;;;;;;;;;5087433;28;20241;-72
2021/12/14 06:31:34;;;;;;;11.20;6.30;;;;;;;;;;5089832;28;20210;-72
2021/12/14 06:34:29;;;;;;;11.47;7.03;;;;;;;;;;5089542;28;20230;-71
2021/12/14 06:37:22;;;;;;;13.47;6.63;;;;;;;;;;5064139;28;20199;-71
2021/12/14 06:39:58;;;;;;;9.97;6.37;;;;;;;;;;5088827;28;20333;-72
2021/12/14 06:45:16;;;;;;;13.93;7.50;;;;;;;;;;5087118;28;20210;-72
2021/12/14 06:47:44;;;;;;;12.43;6.73;;;;;;;;;;5089435;28;20210;-71
2021/12/14 06:50:13;;;;;;;14.77;8.10;;;;;;;;;;5089298;28;20222;-72
2021/12/14 06:52:41;;;;;;;12.47;6.50;;;;;;;;;;5089034;28;20685;-71
2021/12/14 06:55:09;;;;;;;9.73;6.37;;;;;;;;;;5089056;28;20214;-71
2021/12/14 06:57:36;;;;;;;15.57;6.73;;;;;;;;;;5088689;28;20948;-71
2021/12/14 07:00:05;;;;;;;15.50;7.00;;;;;;;;;;5088878;28;20890;-72
2021/12/14 07:02:32;;;;;;;13.00;7.03;;;;;;;;;;5088428;28;20217;-71
2021/12/14 07:04:59;;;;;;;11.03;6.47;;;;;;;;;;5088757;28;20214;-72
2021/12/14 07:07:28;;;;;;;7.70;6.10;;;;;;;;;;5089104;28;20263;-71
2021/12/14 07:09:57;;;;;;;11.33;5.97;;;;;;;;;;5089051;28;20234;-66
2021/12/14 07:12:25;;;;;;;10.60;6.67;;;;;;;;;;5089022;28;20218;-71
2021/12/14 07:15:05;;;;;;;8.63;5.80;;;;;;;;;;5088721;28;20213;-71
2021/12/14 07:17:40;;;;;;;10.90;5.70;;;;;;;;;;5088900;28;20209;-72
2021/12/14 07:20:17;;;;;;;8.80;6.03;;;;;;;;;;5088897;28;20240;-72
2021/12/14 07:22:46;;;;;;;11.30;6.30;;;;;;;;;;5089032;28;20259;-72
2021/12/14 07:25:15;;;;;;;9.70;5.83;;;;;;;;;;5088990;28;20210;-71
2021/12/14 07:27:42;;;;;;;11.40;6.50;;;;;;;;;;5076559;28;20211;-71
2021/12/14 07:30:13;;;;;;;12.10;6.57;;;;;;;;;;5068187;28;20277;-71
2021/12/14 07:32:42;;;;;;;12.37;6.70;;;;;;;;;;5082539;28;20213;-72
2021/12/14 07:35:27;;;;;;;11.50;5.90;;;;;;;;;;5088128;28;20202;-71
2021/12/14 07:37:56;;;;;;;10.53;6.57;;;;;;;;;;5076312;28;20733;-71
2021/12/14 07:40:23;;;;;;;11.43;6.60;;;;;;;;;;5084943;28;20277;-71
2021/12/14 07:43:06;;;;;;;10.20;6.27;;;;;;;;;;5088617;28;20214;-72
2021/12/14 07:45:45;;;;;;;10.47;6.63;;;;;;;;;;5088789;28;20263;-71
2021/12/14 07:48:13;;;;;;;9.77;5.90;;;;;;;;;;5076700;28;20203;-71
2021/12/14 07:50:42;;;;;;;9.53;6.23;;;;;;;;;;5068466;28;20207;-72
2021/12/14 07:53:10;;;;;;;14.83;6.60;;;;;;;;;;5071308;28;20971;-71
2021/12/14 07:55:42;;;;;;;11.03;6.60;;;;;;;;;;5077506;28;20207;-72
2021/12/14 07:58:10;;;;;;;11.43;6.53;;;;;;;;;;5068144;28;20214;-72
2021/12/14 08:00:40;;;;;;;13.80;6.63;;;;;;;;;;5068503;28;20299;-71
2021/12/14 08:03:09;;;;;;;13.70;7.67;;;;;;;;;;5086294;28;20214;-72
2021/12/14 08:05:37;;;;;;;11.67;6.17;;;;;;;;;;5083615;28;20284;-71
2021/12/14 08:08:09;;;;;;;12.67;7.50;;;;;;;;;;5080787;28;20689;-72
2021/12/14 08:10:41;;;;;;;10.33;6.33;;;;;;;;;;5091148;28;20214;-72
2021/12/14 08:13:11;;;;;;;14.07;6.10;;;;;;;;;;5075135;28;20297;-72
2021/12/14 08:15:39;;;;;;;16.27;7.10;;;;;;;;;;5079154;28;20221;-72
2021/12/14 08:18:08;;;;;;;13.40;6.83;;;;;;;;;;5087701;28;20205;-72
2021/12/14 08:20:36;;;;;;;9.87;6.27;;;;;;;;;;5087204;28;20227;-72
2021/12/14 08:23:12;;;;;;;10.93;6.47;;;;;;;;;;5071618;28;20210;-72
2021/12/14 08:25:42;;;;;;;12.70;7.40;;;;;;;;;;5074345;28;20218;-72
2021/12/14 08:28:09;;;;;;;12.17;7.20;;;;;;;;;;5085194;28;20727;-71
2021/12/14 08:30:40;;;;;;;15.40;7.40;;;;;;;;;;5079778;28;20249;-72
2021/12/14 08:33:17;;;;;;;12.80;6.97;;;;;;;;;;5089315;28;20225;-72
2021/12/14 08:35:44;;;;;;;12.97;6.70;;;;;;;;;;5082109;28;20214;-72
2021/12/14 08:38:11;;;;;;;17.23;7.70;;;;;;;;;;5090321;28;20211;-71
2021/12/14 08:40:41;;;;;;;12.13;6.63;;;;;;;;;;5091659;28;20226;-71
2021/12/14 08:43:13;;;;;;;11.83;6.83;;;;;;;;;;5090229;28;20214;-72
2021/12/14 08:45:42;;;;;;;13.40;7.33;;;;;;;;;;5081523;28;20226;-72
2021/12/14 08:48:11;;;;;;;11.13;6.90;;;;;;;;;;5069278;28;20207;-72
2021/12/14 08:50:40;;;;;;;14.73;6.73;;;;;;;;;;5081846;28;20441;-71
2021/12/14 08:53:08;;;;;;;16.07;8.13;;;;;;;;;;5091192;28;20210;-71
2021/12/14 08:55:37;;;;;;;17.23;7.60;;;;;;;;;;5091218;28;20199;-72
2021/12/14 08:58:04;;;;;;;16.13;8.20;;;;;;;;;;5091161;28;20214;-71
2021/12/14 09:00:34;;;;;;;16.13;8.07;;;;;;;;;;5090713;28;20626;-72
2021/12/14 09:03:03;;;;;;;13.40;6.43;;;;;;;;;;5091157;28;20210;-71
2021/12/14 09:05:36;;;;;;;17.00;6.97;;;;;;;;;;5091132;28;20203;-71
2021/12/14 09:08:04;;;;;;;14.13;7.13;;;;;;;;;;5091055;28;20217;-71
2021/12/14 09:10:32;;;;;;;13.73;6.97;;;;;;;;;;5091205;28;20210;-71
2021/12/14 09:13:01;;;;;;;13.03;6.10;;;;;;;;;;5090530;28;20566;-72
2021/12/14 09:15:31;;;;;;;11.90;6.40;;;;;;;;;;5091130;28;20214;-72
2021/12/14 09:17:59;;;;;;;13.97;5.67;;;;;;;;;;5090507;28;20202;-72
2021/12/14 09:20:30;;;;;;;6.67;4.40;;;;;;;;;;5072799;28;20254;-66
2021/12/14 09:23:01;;;;;;;10.83;5.97;;;;;;;;;;5084462;28;20194;-72
2021/12/14 09:25:29;;;;;;;13.33;6.53;;;;;;;;;;5075163;28;20207;-73
2021/12/14 09:27:59;;;;;;;9.97;5.87;;;;;;;;;;5072758;28;20264;-73
2021/12/14 09:30:28;;;;;;;10.70;6.40;;;;;;;;;;5090310;28;20238;-73
2021/12/14 09:32:55;;;;;;;12.50;5.93;;;;;;;;;;5090188;28;20223;-73
2021/12/14 09:35:25;;;;;;;11.57;6.20;;;;;;;;;;5090496;28;20212;-73
2021/12/14 09:37:53;;;;;;;6.83;5.27;;;;;;;;;;5090479;28;20673;-73
2021/12/14 09:40:21;;;;;;;9.20;5.30;;;;;;;;;;5090350;28;20974;-71
2021/12/14 09:42:49;;;;;;;9.17;5.37;;;;;;;;;;5089914;28;20217;-70
2021/12/14 09:45:17;;;;;;;8.73;5.60;;;;;;;;;;5090305;28;20237;-69
2021/12/14 09:47:45;;;;;;;10.83;5.00;;;;;;;;;;5090288;28;20194;-74
2021/12/14 09:50:13;;;;;;;10.70;5.70;;;;;;;;;;5090048;28;20215;-74
2021/12/14 09:52:43;;;;;;;11.57;6.03;;;;;;;;;;5087882;28;20210;-74
2021/12/14 09:55:12;;;;;;;9.70;5.50;;;;;;;;;;5090024;28;20245;-74
2021/12/14 09:57:41;;;;;;;10.27;5.53;;;;;;;;;;5090108;28;20214;-73
2021/12/14 10:00:11;;;;;;;11.43;5.57;;;;;;;;;;5087690;28;20276;-74
2021/12/14 10:02:39;;;;;;;9.97;5.50;;;;;;;;;;5089578;28;20210;-73
2021/12/14 10:05:08;;;;;;;7.97;5.43;;;;;;;;;;5079636;28;20218;-74
2021/12/14 10:07:35;;;;;;;9.37;6.47;;;;;;;;;;5069299;28;20218;-73
2021/12/14 10:10:05;;;;;;;6.40;4.97;;;;;;;;;;5085664;28;20205;-73
2021/12/14 10:12:49;;;;;;;9.00;5.90;;;;;;;;;;5089499;28;20217;-73
2021/12/14 10:15:18;;;;;;;11.57;6.20;;;;;;;;;;5089473;28;20210;-74
2021/12/14 10:17:46;;;;;;;10.23;6.07;;;;;;;;;;5089371;28;20611;-74
2021/12/14 10:20:16;;;;;;;13.27;5.70;;;;;;;;;;5089144;28;20226;-73
2021/12/14 10:22:43;;;;;;;8.07;5.47;;;;;;;;;;5078827;28;20206;-73
2021/12/14 10:25:14;;;;;;;11.50;6.03;;;;;;;;;;5089186;28;20206;-73
2021/12/14 10:27:41;;;;;;;11.10;5.27;;;;;;;;;;5089038;28;20206;-73
2021/12/14 10:30:12;;;;;;;9.10;4.97;;;;;;;;;;5088721;28;20728;-73
2021/12/14 10:32:39;;;;;;;8.80;5.23;;;;;;;;;;5089043;28;20247;-73
2021/12/14 10:35:09;;;;;;;12.37;6.60;;;;;;;;;;5088279;28;20217;-73
2021/12/14 10:37:50;;;;;;;9.03;5.97;;;;;;;;;;5088980;28;20779;-74
2021/12/14 10:43:15;;;;;;;10.40;5.50;;;;;;;;;;5083274;28;20674;-75
2021/12/14 10:45:45;;;;;;;9.30;5.80;;;;;;;;;;5089258;28;20680;-68
2021/12/14 10:48:13;;;;;;;12.87;6.07;;;;;;;;;;5089059;28;20581;-70
2021/12/14 10:50:40;;;;;;;8.03;6.23;;;;;;;;;;5088377;28;20225;-70
2021/12/14 10:53:08;;;;;;;11.70;6.00;;;;;;;;;;5089134;28;20202;-80
2021/12/14 10:55:39;;;;;;;8.37;4.90;;;;;;;;;;5086598;28;20214;-72
2021/12/14 10:58:08;;;;;;;8.43;5.40;;;;;;;;;;5089164;28;20216;-72
2021/12/14 11:00:39;;;;;;;9.93;5.20;;;;;;;;;;5088849;28;20233;-70
2021/12/14 11:03:09;;;;;;;11.20;5.90;;;;;;;;;;5088917;28;20214;-69
2021/12/14 11:05:38;;;;;;;11.23;6.50;;;;;;;;;;5088562;28;20249;-72
2021/12/14 11:08:06;;;;;;;10.57;6.27;;;;;;;;;;5088839;28;20256;-67
2021/12/14 11:10:37;;;;;;;11.00;6.10;;;;;;;;;;5088983;28;20573;-71
2021/12/14 11:13:06;;;;;;;9.00;5.17;;;;;;;;;;5088867;28;20209;-67
2021/12/14 11:15:36;;;;;;;13.60;5.83;;;;;;;;;;5088728;28;20206;-69
2021/12/14 11:18:11;;;;;;;12.13;6.30;;;;;;;;;;5078546;28;20256;-72
2021/12/14 11:20:40;;;;;;;12.00;6.07;;;;;;;;;;5082100;28;20229;-72
2021/12/14 11:23:09;;;;;;;12.87;6.37;;;;;;;;;;5071890;28;20217;-72
2021/12/14 11:25:47;;;;;;;10.17;6.60;;;;;;;;;;5066606;28;20225;-73
2021/12/14 11:28:18;;;;;;;12.27;6.00;;;;;;;;;;5088735;28;20214;-72
2021/12/14 11:30:46;;;;;;;9.73;5.73;;;;;;;;;;5087615;28;20291;-72
2021/12/14 11:33:17;;;;;;;15.67;6.70;;;;;;;;;;5087952;28;20226;-73
2021/12/14 11:35:47;;;;;;;14.20;6.97;;;;;;;;;;5089006;28;20214;-73
2021/12/14 11:38:31;;;;;;;11.53;5.77;;;;;;;;;;5088335;28;20214;-73
2021/12/14 11:40:59;;;;;;;14.23;6.77;;;;;;;;;;5088680;28;20234;-72
2021/12/14 11:43:30;;;;;;;6.90;4.23;;;;;;;;;;5088604;28;20576;-72
2021/12/14 11:45:57;;;;;;;11.37;5.93;;;;;;;;;;5091856;28;20285;-72
2021/12/14 11:48:32;;;;;;;12.00;5.47;;;;;;;;;;5089919;28;20214;-73
2021/12/14 11:50:59;;;;;;;14.03;5.83;;;;;;;;;;5089294;28;20209;-72
2021/12/14 11:53:26;;;;;;;13.10;6.27;;;;;;;;;;5088863;28;20214;-72
2021/12/14 11:55:55;;;;;;;10.17;6.57;;;;;;;;;;5081219;28;20259;-74
2021/12/14 11:58:30;;;;;;;11.97;6.40;;;;;;;;;;5087485;28;20620;-75
2021/12/14 12:01:01;;;;;;;10.33;6.17;;;;;;;;;;5091769;28;20255;-74
2021/12/14 12:03:31;;;;;;;11.97;6.87;;;;;;;;;;5092223;28;20214;-73
2021/12/14 12:06:03;;;;;;;11.80;6.07;;;;;;;;;;5091388;28;20263;-72
2021/12/14 12:11:16;;;;;;;15.27;6.43;;;;;;;;;;5089737;28;20217;-72
2021/12/14 12:13:45;;;;;;;12.57;5.90;;;;;;;;;;5091476;28;20206;-75
2021/12/14 12:16:14;;;;;;;14.73;6.60;;;;;;;;;;5092239;28;20225;-71
2021/12/14 12:19:01;;;;;;;12.40;6.27;;;;;;;;;;5090260;28;20203;-71
2021/12/14 12:21:29;;;;;;;13.50;6.17;;;;;;;;;;5080962;28;20589;-71
2021/12/14 12:23:56;;;;;;;12.10;6.07;;;;;;;;;;5091564;28;20210;-71
2021/12/14 12:26:28;;;;;;;13.50;6.20;;;;;;;;;;5091936;28;20214;-72
2021/12/14 12:29:01;;;;;;;15.07;6.30;;;;;;;;;;5072081;28;20210;-72
2021/12/14 12:31:28;;;;;;;10.40;5.97;;;;;;;;;;5082327;28;20755;-71
2021/12/14 12:33:57;;;;;;;11.50;6.40;;;;;;;;;;5087591;28;20696;-71
2021/12/14 12:36:26;;;;;;;14.50;6.13;;;;;;;;;;5089430;28;20248;-71
2021/12/14 12:38:54;;;;;;;12.87;6.40;;;;;;;;;;5090219;28;20686;-72
2021/12/14 12:41:26;;;;;;;14.57;6.93;;;;;;;;;;5091592;28;20237;-71
2021/12/14 12:43:54;;;;;;;12.40;6.20;;;;;;;;;;5091399;28;20292;-71
2021/12/14 12:46:23;;;;;;;11.97;5.87;;;;;;;;;;5090396;28;20206;-70
2021/12/14 12:48:56;;;;;;;11.67;5.70;;;;;;;;;;5090747;28;20217;-76
2021/12/14 12:51:41;;;;;;;14.43;6.43;;;;;;;;;;5074209;28;20214;-65
2021/12/14 12:54:12;;;;;;;16.03;6.67;;;;;;;;;;5082390;28;20210;-69
2021/12/14 12:56:42;;;;;;;10.70;5.67;;;;;;;;;;5083979;28;20643;-68
2021/12/14 12:59:09;;;;;;;11.50;5.93;;;;;;;;;;5084185;28;20202;-69
2021/12/14 13:01:38;;;;;;;14.93;7.67;;;;;;;;;;5085759;28;20240;-69
2021/12/14 13:04:05;;;;;;;12.37;5.80;;;;;;;;;;5085128;28;20203;-68
2021/12/14 13:06:33;;;;;;;12.97;6.53;;;;;;;;;;5084024;28;20206;-69
2021/12/14 13:09:01;;;;;;;14.70;7.50;;;;;;;;;;5086540;28;20222;-76
2021/12/14 13:11:31;;;;;;;13.00;6.80;;;;;;;;;;5086114;28;20202;-69
2021/12/14 13:13:59;;;;;;;15.03;6.03;;;;;;;;;;5083254;28;20210;-69
2021/12/14 13:16:27;;;;;;;13.20;6.90;;;;;;;;;;5077943;28;20206;-69
2021/12/14 13:18:57;;;;;;;13.93;6.53;;;;;;;;;;5072783;28;20217;-69
2021/12/14 13:21:33;;;;;;;12.60;5.47;;;;;;;;;;5083373;28;20233;-68
2021/12/14 13:24:17;;;;;;;11.27;6.13;;;;;;;;;;5085737;28;20217;-70
2021/12/14 13:26:56;;;;;;;11.37;5.90;;;;;;;;;;5066185;28;20207;-71
2021/12/14 13:29:27;;;;;;;15.40;6.50;;;;;;;;;;5083905;28;20206;-67
2021/12/14 13:31:56;;;;;;;17.17;6.73;;;;;;;;;;5085681;28;20206;-70
2021/12/14 13:34:25;;;;;;;14.40;7.00;;;;;;;;;;5085473;28;20655;-71
2021/12/14 13:36:54;;;;;;;12.40;6.17;;;;;;;;;;5084641;28;20207;-71
2021/12/14 13:39:21;;;;;;;14.00;6.87;;;;;;;;;;5085580;28;20218;-70
2021/12/14 13:41:57;;;;;;;14.93;6.37;;;;;;;;;;5074174;28;20229;-71
2021/12/14 13:44:24;;;;;;;14.53;6.10;;;;;;;;;;5080271;28;20216;-71
2021/12/14 13:46:51;;;;;;;13.27;6.47;;;;;;;;;;5068751;28;20218;-71
2021/12/14 13:49:19;;;;;;;10.57;6.70;;;;;;;;;;5082630;28;20210;-70
2021/12/14 13:51:47;;;;;;;13.33;5.87;;;;;;;;;;5086030;28;20297;-72
2021/12/14 13:54:14;;;;;;;10.10;5.63;;;;;;;;;;5085868;28;20233;-68
2021/12/14 13:56:43;;;;;;;9.10;5.40;;;;;;;;;;5086100;28;20321;-69
2021/12/14 13:59:10;;;;;;;19.10;6.10;;;;;;;;;;5065015;28;20593;-71
2021/12/14 14:01:41;;;;;;;14.17;5.73;;;;;;;;;;5085623;28;20268;-71
2021/12/14 14:04:09;;;;;;;9.90;5.77;;;;;;;;;;5077782;28;20724;-72
2021/12/14 14:06:36;;;;;;;13.10;6.23;;;;;;;;;;5085534;28;20214;-72
2021/12/14 14:09:10;;;;;;;14.30;7.00;;;;;;;;;;5085327;28;20203;-70
2021/12/14 14:11:38;;;;;;;12.50;6.67;;;;;;;;;;5083506;28;20210;-73
2021/12/14 14:14:06;;;;;;;17.07;6.40;;;;;;;;;;5085084;28;20556;-76
2021/12/14 14:16:37;;;;;;;13.10;5.77;;;;;;;;;;5086170;28;20213;-75
2021/12/14 14:19:07;;;;;;;11.17;6.13;;;;;;;;;;5085936;28;20214;-72
2021/12/14 14:21:34;;;;;;;11.10;6.10;;;;;;;;;;5084719;28;20735;-73
2021/12/14 14:24:02;;;;;;;18.25;9.35;;;;;;;;;;5085234;28;20448;-74
2021/12/14 14:26:37;;;;;;;15.67;6.47;;;;;;;;;;5079810;28;20218;-72
2021/12/14 14:29:06;;;;;;;15.60;6.53;;;;;;;;;;5085405;28;20213;-71
2021/12/14 14:31:42;;;;;;;11.17;6.30;;;;;;;;;;5085326;28;20213;-70
2021/12/14 14:34:19;;;;;;;12.03;6.30;;;;;;;;;;5085435;28;20599;-71
2021/12/14 14:36:46;;;;;;;13.60;5.83;;;;;;;;;;5083977;28;20220;-71
2021/12/14 14:39:15;;;;;;;16.20;6.87;;;;;;;;;;5085636;28;20225;-71
2021/12/14 14:41:46;;;;;;;11.57;6.13;;;;;;;;;;5085216;28;20707;-70
2021/12/14 14:44:14;;;;;;;11.53;6.00;;;;;;;;;;5069960;28;20218;-70
2021/12/14 14:46:49;;;;;;;8.90;5.10;;;;;;;;;;5073751;28;20213;-71
2021/12/14 14:49:18;;;;;;;10.00;5.43;;;;;;;;;;5084938;28;20731;-70
2021/12/14 14:51:47;;;;;;;10.23;5.13;;;;;;;;;;5073401;28;20217;-70
2021/12/14 14:54:33;;;;;;;9.60;5.70;;;;;;;;;;5066313;28;20214;-70
2021/12/14 14:57:21;;;;;;;18.83;7.03;;;;;;;;;;5084063;28;20298;-71
2021/12/14 15:00:06;;;;;;;14.10;6.27;;;;;;;;;;5084051;28;20221;-72
2021/12/14 15:02:48;;;;;;;16.53;6.10;;;;;;;;;;5084152;28;20310;-71
2021/12/14 15:05:16;;;;;;;12.10;6.13;;;;;;;;;;5085065;28;20203;-71
2021/12/14 15:07:55;;;;;;;11.80;5.77;;;;;;;;;;5084075;28;20260;-71
2021/12/14 15:10:23;;;;;;;16.60;7.53;;;;;;;;;;5083307;28;20236;-71
2021/12/14 15:13:07;;;;;;;16.50;8.33;;;;;;;;;;5083846;28;20221;-71
2021/12/14 15:15:35;;;;;;;13.13;7.63;;;;;;;;;;5082315;28;20328;-71
2021/12/14 15:18:03;;;;;;;28.07;9.47;;;;;;;;;;5084024;28;20278;-72